Time;durP1;ratioP1;P1;durP2;ratioP2;P2;SDS_P1;SDS_P2;PMS_P1;PMS_P2;Temp;Humidity;BMP_temperature;BMP_pressure;BME280_temperature;BME280_humidity;BME280_pressure;Samples;Min_cycle;Max_cycle;Signal;HPM_P1;HPM_P2
2021/07/01 00:00:49;;;;;;;14.55;8.65;;;15.70;90.60;;;;;;5077548;28;20036;-79
2021/07/01 00:03:15;;;;;;;12.27;7.85;;;15.70;90.50;;;;;;5053381;28;20067;-79
2021/07/01 00:05:42;;;;;;;16.08;9.57;;;15.70;90.60;;;;;;5037040;28;20509;-78
2021/07/01 00:08:08;;;;;;;9.85;8.57;;;15.70;90.60;;;;;;5053865;28;20025;-79
2021/07/01 00:10:34;;;;;;;13.77;9.57;;;15.60;90.90;;;;;;5072227;28;20102;-79
2021/07/01 00:12:59;;;;;;;10.43;8.07;;;15.70;90.60;;;;;;5072239;28;20082;-79
2021/07/01 00:15:27;;;;;;;13.85;9.77;;;15.70;90.60;;;;;;5062769;28;20036;-79
2021/07/01 00:17:54;;;;;;;13.43;10.23;;;15.60;90.60;;;;;;5071861;28;20028;-78
2021/07/01 00:20:20;;;;;;;13.30;11.55;;;15.60;90.60;;;;;;5076152;28;20048;-79
2021/07/01 00:22:46;;;;;;;12.90;11.20;;;15.70;90.60;;;;;;5076098;28;20059;-78
2021/07/01 00:25:13;;;;;;;19.08;13.48;;;15.70;90.70;;;;;;5076101;28;20068;-79
2021/07/01 00:27:39;;;;;;;14.80;12.63;;;15.60;90.70;;;;;;5076049;28;20389;-79
2021/07/01 00:30:07;;;;;;;14.35;11.30;;;15.60;90.70;;;;;;5057858;28;20025;-78
2021/07/01 00:32:32;;;;;;;15.65;12.52;;;15.60;90.70;;;;;;5057074;28;20022;-79
2021/07/01 00:34:58;;;;;;;17.85;13.07;;;15.60;90.70;;;;;;5056964;28;20090;-78
2021/07/01 00:37:23;;;;;;;15.07;12.40;;;15.60;90.70;;;;;;5057486;28;20061;-78
2021/07/01 00:39:49;;;;;;;19.35;14.40;;;15.60;91.00;;;;;;5056810;28;20029;-79
2021/07/01 00:42:15;;;;;;;19.63;14.85;;;15.60;90.80;;;;;;5056816;28;20047;-79
2021/07/01 00:44:40;;;;;;;19.50;13.80;;;15.60;90.80;;;;;;5061800;28;20108;-79
2021/07/01 00:47:06;;;;;;;24.52;14.77;;;15.60;90.80;;;;;;5070290;28;20029;-78
2021/07/01 00:49:33;;;;;;;21.02;15.63;;;15.60;90.80;;;;;;5068918;28;20043;-79
2021/07/01 00:51:59;;;;;;;17.58;14.38;;;15.50;90.80;;;;;;5064271;28;20049;-78
2021/07/01 00:54:24;;;;;;;21.13;15.73;;;15.50;90.80;;;;;;5056713;28;20068;-79
2021/07/01 00:56:50;;;;;;;29.85;18.23;;;15.50;90.90;;;;;;5056751;28;20048;-78
2021/07/01 00:59:16;;;;;;;20.17;16.25;;;15.50;90.80;;;;;;5078722;28;20064;-79
2021/07/01 01:01:42;;;;;;;22.48;15.35;;;15.50;90.90;;;;;;5074330;28;20397;-79
2021/07/01 01:04:08;;;;;;;20.67;14.48;;;15.50;90.90;;;;;;5058636;28;20035;-79
2021/07/01 01:06:34;;;;;;;19.17;13.40;;;15.50;90.90;;;;;;5076426;28;20489;-79
2021/07/01 01:09:03;;;;;;;16.35;12.32;;;15.60;90.90;;;;;;5056496;28;20045;-78
2021/07/01 01:11:29;;;;;;;15.63;12.07;;;15.50;90.90;;;;;;5064175;28;20043;-79
2021/07/01 01:13:56;;;;;;;19.38;14.25;;;15.60;90.90;;;;;;5075025;28;20516;-78
2021/07/01 01:16:21;;;;;;;22.63;14.95;;;15.60;90.90;;;;;;5062806;28;20063;-78
2021/07/01 01:18:48;;;;;;;20.98;14.48;;;15.60;90.90;;;;;;5056363;28;20437;-79
2021/07/01 01:21:15;;;;;;;15.70;13.25;;;15.60;90.90;;;;;;5055167;28;20482;-78
2021/07/01 01:23:41;;;;;;;15.00;12.73;;;15.60;90.90;;;;;;5056292;28;20033;-78
2021/07/01 01:26:07;;;;;;;17.30;12.57;;;15.60;90.80;;;;;;5076167;28;20028;-78
2021/07/01 01:28:33;;;;;;;18.35;13.98;;;15.60;90.90;;;;;;5075917;28;20021;-78
2021/07/01 01:30:58;;;;;;;21.15;12.30;;;15.60;90.90;;;;;;5073070;28;20374;-79
2021/07/01 01:33:25;;;;;;;21.02;14.82;;;15.60;90.90;;;;;;5057981;28;20028;-78
2021/07/01 01:35:51;;;;;;;23.35;15.02;;;15.60;90.90;;;;;;5074561;28;20538;-78
2021/07/01 01:38:17;;;;;;;29.60;16.20;;;15.60;90.80;;;;;;5063412;28;20112;-78
2021/07/01 01:40:45;;;;;;;22.30;15.48;;;15.60;90.80;;;;;;5074655;28;20025;-78
2021/07/01 01:43:14;;;;;;;23.48;15.63;;;15.60;90.90;;;;;;5054613;28;20520;-78
2021/07/01 01:45:41;;;;;;;26.80;17.05;;;15.60;90.90;;;;;;5061828;28;20055;-78
2021/07/01 01:48:07;;;;;;;26.50;16.60;;;15.60;90.90;;;;;;5075438;28;20028;-78
2021/07/01 01:50:33;;;;;;;31.17;16.70;;;15.50;90.90;;;;;;5075862;28;20033;-78
2021/07/01 01:53:00;;;;;;;26.60;16.33;;;15.50;91.00;;;;;;5079536;28;20358;-78
2021/07/01 01:55:25;;;;;;;23.48;14.60;;;15.50;91.00;;;;;;5083501;28;20052;-78
2021/07/01 01:57:52;;;;;;;25.33;16.25;;;15.50;91.00;;;;;;5075282;28;20075;-78
2021/07/01 02:00:21;;;;;;;33.45;17.98;;;15.50;91.00;;;;;;5071658;28;20493;-79
2021/07/01 02:02:47;;;;;;;22.50;14.35;;;15.50;91.00;;;;;;5055593;28;20021;-78
2021/07/01 02:05:13;;;;;;;21.88;14.88;;;15.50;91.10;;;;;;5071037;28;20048;-78
2021/07/01 02:07:40;;;;;;;33.67;17.45;;;15.50;91.10;;;;;;5057821;28;20028;-79
2021/07/01 02:10:19;;;;;;;29.38;17.13;;;15.50;91.10;;;;;;5054655;28;20037;-78
2021/07/01 02:12:45;;;;;;;21.70;15.52;;;15.50;91.10;;;;;;5063303;28;20032;-79
2021/07/01 02:15:14;;;;;;;20.83;15.70;;;15.50;91.10;;;;;;5075051;28;20169;-78
2021/07/01 02:17:40;;;;;;;26.67;15.75;;;15.50;91.20;;;;;;5075157;28;20029;-79
2021/07/01 02:20:11;;;;;;;27.15;16.05;;;15.50;91.10;;;;;;5063955;28;20044;-78
2021/07/01 02:22:37;;;;;;;26.48;16.45;;;15.50;91.10;;;;;;5054946;28;20032;-79
2021/07/01 02:25:04;;;;;;;30.67;16.73;;;15.50;91.00;;;;;;5054993;28;20037;-78
2021/07/01 02:27:29;;;;;;;32.20;17.88;;;15.50;91.00;;;;;;5054984;28;20436;-78
2021/07/01 02:29:55;;;;;;;27.52;18.13;;;15.50;91.00;;;;;;5061281;28;20037;-78
2021/07/01 02:32:21;;;;;;;33.40;18.63;;;15.50;91.20;;;;;;5068975;28;20056;-78
2021/07/01 02:34:48;;;;;;;30.63;19.17;;;15.50;91.00;;;;;;5056167;28;20021;-78
2021/07/01 02:37:14;;;;;;;31.45;19.35;;;15.40;91.00;;;;;;5095008;28;20095;-78
2021/07/01 02:39:40;;;;;;;31.08;17.48;;;15.40;91.00;;;;;;5094900;28;20473;-78
2021/07/01 02:42:06;;;;;;;36.20;19.60;;;15.50;91.00;;;;;;5090719;28;20032;-79
2021/07/01 02:44:32;;;;;;;28.15;18.23;;;15.40;91.00;;;;;;5072539;28;20051;-78
2021/07/01 02:46:58;;;;;;;30.13;18.30;;;15.40;90.90;;;;;;5061977;28;20052;-79
2021/07/01 02:49:24;;;;;;;30.33;18.48;;;15.40;91.00;;;;;;5081915;28;20032;-78
2021/07/01 02:51:53;;;;;;;23.23;15.18;;;15.40;91.00;;;;;;5078181;28;20056;-78
2021/07/01 02:54:20;;;;;;;34.92;18.67;;;15.40;91.00;;;;;;5060914;28;20029;-78
2021/07/01 02:56:47;;;;;;;35.95;19.65;;;15.40;91.00;;;;;;5054229;28;20067;-78
2021/07/01 02:59:15;;;;;;;34.50;19.80;;;15.40;90.90;;;;;;5067281;28;20060;-78
2021/07/01 03:01:44;;;;;;;36.40;19.57;;;15.40;90.90;;;;;;5064630;28;20024;-78
2021/07/01 03:04:10;;;;;;;31.98;19.77;;;15.40;91.00;;;;;;5093142;28;20156;-78
2021/07/01 03:06:36;;;;;;;33.78;19.38;;;15.40;91.00;;;;;;5080506;28;20409;-78
2021/07/01 03:09:04;;;;;;;33.00;19.75;;;15.40;91.10;;;;;;5054404;28;20037;-78
2021/07/01 03:11:29;;;;;;;36.78;19.55;;;15.40;91.00;;;;;;5070925;28;20089;-78
2021/07/01 03:13:55;;;;;;;33.05;18.98;;;15.40;91.00;;;;;;5058166;28;20040;-78
2021/07/01 03:16:21;;;;;;;29.45;18.60;;;15.40;91.00;;;;;;5070192;28;20458;-78
2021/07/01 03:18:47;;;;;;;28.77;16.77;;;15.40;90.90;;;;;;5056233;28;20025;-78
2021/07/01 03:21:14;;;;;;;28.23;18.20;;;15.30;90.80;;;;;;5058429;28;20025;-78
2021/07/01 03:23:39;;;;;;;32.50;17.38;;;15.30;90.70;;;;;;5070607;28;20105;-78
2021/07/01 03:26:05;;;;;;;33.58;18.38;;;15.30;90.80;;;;;;5068499;28;20052;-78
2021/07/01 03:28:31;;;;;;;29.38;14.80;;;15.30;90.90;;;;;;5052821;28;20017;-78
2021/07/01 03:30:56;;;;;;;22.08;14.55;;;15.30;90.90;;;;;;5063705;28;20046;-78
2021/07/01 03:33:22;;;;;;;24.35;13.57;;;15.20;90.90;;;;;;5074096;28;20397;-79
2021/07/01 03:35:48;;;;;;;23.65;14.63;;;15.20;90.90;;;;;;5055961;28;20024;-78
2021/07/01 03:38:13;;;;;;;21.70;14.00;;;15.20;90.90;;;;;;5054575;28;20025;-78
2021/07/01 03:40:39;;;;;;;24.73;13.93;;;15.20;90.90;;;;;;5053932;28;20032;-79
2021/07/01 03:43:05;;;;;;;30.90;15.13;;;15.30;90.90;;;;;;5067046;28;20477;-78
2021/07/01 03:45:30;;;;;;;20.45;12.27;;;15.30;90.80;;;;;;5072955;28;20032;-79
2021/07/01 03:47:56;;;;;;;28.55;14.90;;;15.20;90.80;;;;;;5065831;28;20033;-79
2021/07/01 03:50:22;;;;;;;29.65;14.57;;;15.20;90.80;;;;;;5073754;28;20480;-78
2021/07/01 03:52:47;;;;;;;28.63;14.32;;;15.20;91.10;;;;;;5072190;28;20040;-78
2021/07/01 03:55:13;;;;;;;30.48;13.70;;;15.10;90.70;;;;;;5072862;28;20025;-78
2021/07/01 03:57:39;;;;;;;23.05;13.07;;;15.20;90.80;;;;;;5073610;28;20063;-78
2021/07/01 04:00:07;;;;;;;26.45;13.15;;;15.20;90.80;;;;;;5073640;28;20027;-78
2021/07/01 04:02:32;;;;;;;33.33;14.00;;;15.20;90.90;;;;;;5073200;28;20499;-78
2021/07/01 04:04:58;;;;;;;36.35;16.08;;;15.20;90.80;;;;;;5073469;28;20024;-78
2021/07/01 04:07:24;;;;;;;32.53;15.68;;;15.20;90.70;;;;;;5053751;28;20029;-78
2021/07/01 04:09:49;;;;;;;33.50;16.77;;;15.10;90.80;;;;;;5068013;28;20086;-79
2021/07/01 04:12:15;;;;;;;25.83;15.45;;;15.10;90.80;;;;;;5065838;28;20406;-79
2021/07/01 04:14:41;;;;;;;29.52;14.48;;;15.10;90.70;;;;;;5073228;28;20032;-79
2021/07/01 04:17:06;;;;;;;29.42;14.90;;;15.10;90.70;;;;;;5073353;28;20044;-78
2021/07/01 04:19:32;;;;;;;26.23;13.27;;;15.10;90.70;;;;;;5072918;28;20103;-78
2021/07/01 04:21:58;;;;;;;30.75;14.18;;;15.20;90.70;;;;;;5072273;28;20021;-78
2021/07/01 04:24:24;;;;;;;29.98;13.68;;;15.20;90.70;;;;;;5072353;28;20036;-78
2021/07/01 04:26:50;;;;;;;34.88;13.45;;;15.20;90.60;;;;;;5075386;28;20093;-78
2021/07/01 04:29:16;;;;;;;28.23;13.55;;;15.20;90.60;;;;;;5072113;28;20546;-78
2021/07/01 04:31:42;;;;;;;32.25;13.23;;;15.20;90.50;;;;;;5067441;28;20514;-78
2021/07/01 04:34:08;;;;;;;31.52;11.98;;;15.20;90.40;;;;;;5053237;28;20026;-78
2021/07/01 04:36:33;;;;;;;21.75;10.70;;;15.20;90.40;;;;;;5071961;28;20405;-78
2021/07/01 04:39:00;;;;;;;27.50;11.98;;;15.30;90.50;;;;;;5071833;28;20107;-78
2021/07/01 04:41:26;;;;;;;29.73;11.90;;;15.30;90.50;;;;;;5072084;28;20040;-78
2021/07/01 04:43:51;;;;;;;28.42;12.65;;;15.30;90.40;;;;;;5072846;28;20389;-78
2021/07/01 04:46:17;;;;;;;25.77;11.48;;;15.30;90.30;;;;;;5073005;28;20108;-79
2021/07/01 04:48:43;;;;;;;23.67;11.85;;;15.30;90.20;;;;;;5072908;28;20452;-78
2021/07/01 04:51:09;;;;;;;21.45;11.07;;;15.30;90.20;;;;;;5072779;28;20103;-78
2021/07/01 04:53:35;;;;;;;25.98;12.30;;;15.30;90.30;;;;;;5062019;28;20104;-79
2021/07/01 04:56:01;;;;;;;26.90;12.10;;;15.40;90.30;;;;;;5066382;28;20024;-78
2021/07/01 04:58:26;;;;;;;24.25;11.90;;;15.40;90.30;;;;;;5060245;28;20449;-78
2021/07/01 05:00:52;;;;;;;29.25;12.95;;;15.40;90.20;;;;;;5069381;28;20039;-78
2021/07/01 05:03:17;;;;;;;29.15;12.73;;;15.40;90.30;;;;;;5066035;28;20021;-78
2021/07/01 05:05:43;;;;;;;25.70;11.32;;;15.40;90.30;;;;;;5061370;28;20037;-78
2021/07/01 05:08:09;;;;;;;21.52;11.68;;;15.40;90.60;;;;;;5065545;28;20500;-78
2021/07/01 05:10:34;;;;;;;25.55;12.48;;;15.40;90.10;;;;;;5061536;28;20033;-78
2021/07/01 05:13:00;;;;;;;28.15;10.98;;;15.40;90.10;;;;;;5069490;28;20381;-78
2021/07/01 05:15:26;;;;;;;26.60;11.40;;;15.40;90.10;;;;;;5063240;28;20481;-77
2021/07/01 05:17:51;;;;;;;23.33;9.88;;;15.40;90.50;;;;;;5065395;28;20052;-77
2021/07/01 05:20:20;;;;;;;25.80;10.88;;;15.40;90.30;;;;;;5074893;28;20057;-76
2021/07/01 05:22:45;;;;;;;35.58;10.55;;;15.40;90.20;;;;;;5057832;28;20036;-77
2021/07/01 05:25:12;;;;;;;30.38;10.98;;;15.30;90.20;;;;;;5064957;28;20078;-78
2021/07/01 05:27:37;;;;;;;22.67;10.93;;;15.40;90.20;;;;;;5064299;28;20041;-77
2021/07/01 05:30:04;;;;;;;22.42;10.35;;;15.30;90.20;;;;;;5066346;28;20486;-78
2021/07/01 05:32:29;;;;;;;23.92;10.60;;;15.30;90.30;;;;;;5073507;28;20024;-78
2021/07/01 05:34:55;;;;;;;25.80;10.32;;;15.40;90.30;;;;;;5071157;28;20063;-77
2021/07/01 05:37:21;;;;;;;24.45;10.05;;;15.40;90.20;;;;;;5069626;28;20082;-78
2021/07/01 05:39:46;;;;;;;23.92;9.35;;;15.40;90.20;;;;;;5061118;28;20069;-77
2021/07/01 05:42:12;;;;;;;24.67;9.65;;;15.40;90.50;;;;;;5064244;28;20033;-78
2021/07/01 05:44:38;;;;;;;22.75;9.75;;;15.40;90.20;;;;;;5056284;28;20033;-77
2021/07/01 05:47:04;;;;;;;19.15;9.88;;;15.40;90.50;;;;;;5068986;28;20481;-77
2021/07/01 05:49:30;;;;;;;22.75;9.85;;;15.40;90.50;;;;;;5067158;28;20028;-77
2021/07/01 05:52:00;;;;;;;26.15;9.70;;;15.40;90.20;;;;;;5061595;28;20021;-77
2021/07/01 05:56:51;;;;;;;19.08;9.65;;;15.40;90.40;;;;;;5071283;28;20119;-77
2021/07/01 05:59:17;;;;;;;21.45;9.75;;;15.50;90.50;;;;;;5057303;28;20484;-77
2021/07/01 06:01:42;;;;;;;19.83;10.05;;;15.50;90.40;;;;;;5070868;28;20033;-77
2021/07/01 06:04:09;;;;;;;21.67;9.90;;;15.50;90.30;;;;;;5088345;28;20039;-77
2021/07/01 06:06:36;;;;;;;23.35;10.40;;;15.40;90.20;;;;;;5094558;28;20388;-77
2021/07/01 06:09:05;;;;;;;22.02;10.07;;;15.50;90.20;;;;;;5095709;28;20032;-77
2021/07/01 06:11:33;;;;;;;23.45;10.30;;;15.50;90.20;;;;;;5095701;28;20598;-77
2021/07/01 06:14:00;;;;;;;;;;;15.40;90.10;;;;;;5085711;28;20480;-77
2021/07/01 06:16:26;;;;;;;19.75;8.77;;;15.40;90.00;;;;;;5074942;28;19904;-77
2021/07/01 06:18:53;;;;;;;24.23;8.98;;;15.40;90.10;;;;;;5075383;28;20025;-77
2021/07/01 06:21:18;;;;;;;21.20;9.30;;;15.40;90.10;;;;;;5059986;28;20017;-77
2021/07/01 06:23:46;;;;;;;18.85;7.57;;;15.40;90.10;;;;;;5054112;28;20028;-77
2021/07/01 06:26:13;;;;;;;18.63;8.90;;;15.40;90.00;;;;;;5054165;28;20424;-77
2021/07/01 06:28:42;;;;;;;17.90;8.88;;;15.40;90.00;;;;;;5054161;28;20086;-77
2021/07/01 06:31:09;;;;;;;18.20;7.95;;;15.40;90.00;;;;;;5055133;28;20064;-77
2021/07/01 06:33:38;;;;;;;21.90;8.98;;;15.40;90.00;;;;;;5073485;28;20112;-77
2021/07/01 06:36:05;;;;;;;19.98;8.60;;;15.40;89.60;;;;;;5073881;28;20028;-77
2021/07/01 06:38:33;;;;;;;19.02;8.57;;;15.40;89.50;;;;;;5056568;28;20029;-78
2021/07/01 06:41:01;;;;;;;17.85;8.32;;;15.40;89.70;;;;;;5054979;28;20056;-78
2021/07/01 06:43:27;;;;;;;19.00;8.30;;;15.40;89.90;;;;;;5055056;28;20114;-78
2021/07/01 06:46:00;;;;;;;21.95;8.30;;;15.50;90.00;;;;;;5054906;28;20032;-78
2021/07/01 06:48:26;;;;;;;19.23;8.52;;;15.50;90.00;;;;;;5067936;28;20390;-78
2021/07/01 06:50:56;;;;;;;16.80;8.60;;;15.50;90.00;;;;;;5074942;28;20025;-78
2021/07/01 06:53:22;;;;;;;21.52;8.73;;;15.60;89.60;;;;;;5074751;28;20029;-78
2021/07/01 06:55:51;;;;;;;19.27;8.13;;;15.60;89.70;;;;;;5071102;28;20013;-80
2021/07/01 06:58:17;;;;;;;21.15;8.65;;;15.70;89.50;;;;;;5070370;28;20055;-79
2021/07/01 07:00:43;;;;;;;18.33;7.40;;;15.80;89.30;;;;;;5054805;28;20115;-79
2021/07/01 07:03:13;;;;;;;14.68;8.20;;;15.80;89.30;;;;;;5074273;28;20537;-79
2021/07/01 07:05:39;;;;;;;18.55;8.07;;;15.90;89.30;;;;;;5074455;28;20028;-79
2021/07/01 07:08:09;;;;;;;17.23;7.88;;;15.90;89.00;;;;;;5056486;28;20028;-80
2021/07/01 07:10:39;;;;;;;16.52;8.27;;;15.90;88.70;;;;;;5072868;28;20032;-80
2021/07/01 07:13:05;;;;;;;14.65;7.55;;;16.00;88.30;;;;;;5074342;28;20024;-80
2021/07/01 07:15:32;;;;;;;20.10;8.07;;;16.00;88.20;;;;;;5072821;28;20445;-79
2021/07/01 07:18:05;;;;;;;14.80;7.05;;;16.00;87.90;;;;;;5074048;28;20425;-80
2021/07/01 07:20:34;;;;;;;17.60;7.63;;;16.00;88.00;;;;;;5073014;28;20059;-79
2021/07/01 07:23:03;;;;;;;19.13;7.50;;;16.00;88.00;;;;;;5073904;28;20028;-80
2021/07/01 07:25:35;;;;;;;19.88;7.70;;;16.00;88.20;;;;;;5072517;28;20029;-80
2021/07/01 07:28:06;;;;;;;14.75;7.72;;;16.10;88.30;;;;;;5072781;28;20032;-80
2021/07/01 07:30:33;;;;;;;19.33;7.28;;;16.10;87.90;;;;;;5072648;28;20055;-80
2021/07/01 07:33:03;;;;;;;17.05;7.85;;;16.10;87.90;;;;;;5074009;28;20129;-80
2021/07/01 07:35:28;;;;;;;20.00;7.93;;;16.10;87.40;;;;;;5073976;28;20024;-80
2021/07/01 07:37:54;;;;;;;21.77;8.30;;;16.10;87.20;;;;;;5072840;28;20032;-80
2021/07/01 07:40:20;;;;;;;17.67;6.63;;;16.00;87.30;;;;;;5073923;28;20035;-80
2021/07/01 07:42:47;;;;;;;17.73;7.43;;;16.00;88.10;;;;;;5074410;28;20377;-80
2021/07/01 07:45:15;;;;;;;17.15;7.35;;;16.00;87.60;;;;;;5074324;28;20040;-80
2021/07/01 07:47:41;;;;;;;21.30;7.97;;;16.00;87.40;;;;;;5070544;28;20392;-80
2021/07/01 07:50:09;;;;;;;23.08;8.43;;;16.00;87.30;;;;;;5079525;28;20602;-80
2021/07/01 07:52:38;;;;;;;12.98;6.88;;;16.10;87.40;;;;;;5090557;28;20123;-80
2021/07/01 07:55:05;;;;;;;16.63;6.60;;;16.10;87.70;;;;;;5072818;28;20036;-80
2021/07/01 07:57:34;;;;;;;14.98;7.50;;;16.10;87.40;;;;;;5064733;28;20028;-80
2021/07/01 08:00:00;;;;;;;20.58;7.22;;;16.10;87.10;;;;;;5073569;28;20362;-80
2021/07/01 08:02:55;;;;;;;16.05;6.82;;;16.10;86.80;;;;;;5073745;28;20043;-80
2021/07/01 08:05:28;;;;;;;20.05;7.10;;;16.10;86.50;;;;;;5089784;28;20073;-81
2021/07/01 08:07:55;;;;;;;14.63;6.75;;;16.10;86.60;;;;;;5093773;28;20025;-80
2021/07/01 08:10:27;;;;;;;14.65;7.13;;;16.10;86.60;;;;;;5078816;28;20037;-80
2021/07/01 08:13:00;;;;;;;18.98;7.93;;;16.10;86.60;;;;;;5073539;28;20074;-80
2021/07/01 08:15:26;;;;;;;17.95;7.55;;;16.10;86.40;;;;;;5073529;28;20028;-80
2021/07/01 08:17:55;;;;;;;16.52;7.75;;;16.10;86.30;;;;;;5058709;28;20037;-80
2021/07/01 08:20:23;;;;;;;14.40;6.90;;;16.10;86.10;;;;;;5052207;28;20036;-81
2021/07/01 08:22:51;;;;;;;15.15;6.80;;;16.10;85.70;;;;;;5053565;28;20482;-80
2021/07/01 08:25:18;;;;;;;15.45;6.80;;;16.10;85.90;;;;;;5053392;28;20025;-80
2021/07/01 08:27:47;;;;;;;17.33;7.43;;;16.20;86.20;;;;;;5066891;28;20033;-80
2021/07/01 08:30:14;;;;;;;;;;;16.20;86.10;;;;;;5068256;28;20029;-80
2021/07/01 08:32:40;;;;;;;16.65;6.53;;;16.20;85.90;;;;;;5066216;28;19956;-81
2021/07/01 08:35:07;;;;;;;16.40;5.78;;;16.20;85.90;;;;;;5072188;28;20075;-79
2021/07/01 08:37:33;;;;;;;11.95;6.15;;;16.40;85.80;;;;;;5073072;28;20024;-79
2021/07/01 08:40:09;;;;;;;12.88;6.43;;;16.50;85.50;;;;;;5074470;28;20043;-79
2021/07/01 08:42:37;;;;;;;13.70;6.78;;;16.60;85.30;;;;;;5096339;28;20032;-79
2021/07/01 08:45:12;;;;;;;11.57;6.07;;;16.80;84.10;;;;;;5097748;28;20468;-79
2021/07/01 08:47:42;;;;;;;14.48;5.82;;;16.90;83.70;;;;;;5096404;28;20051;-79
2021/07/01 08:50:11;;;;;;;16.50;5.90;;;16.90;83.40;;;;;;5097699;28;20033;-79
2021/07/01 08:53:09;;;;;;;15.10;6.57;;;16.90;82.60;;;;;;5097676;28;20108;-79
2021/07/01 08:55:40;;;;;;;14.98;6.75;;;16.90;82.50;;;;;;5097002;28;20029;-79
2021/07/01 08:58:09;;;;;;;13.25;6.22;;;16.80;83.10;;;;;;5078694;28;20036;-79
2021/07/01 09:00:42;;;;;;;16.50;7.65;;;16.80;82.70;;;;;;5081012;28;20516;-79
2021/07/01 09:03:09;;;;;;;15.38;6.55;;;16.80;83.60;;;;;;5076778;28;20059;-79
2021/07/01 09:05:39;;;;;;;17.95;7.25;;;16.80;83.50;;;;;;5076802;28;20101;-79
2021/07/01 09:08:12;;;;;;;14.18;6.63;;;16.80;82.80;;;;;;5076714;28;20106;-79
2021/07/01 09:10:38;;;;;;;14.57;6.03;;;16.90;83.30;;;;;;5076716;28;20039;-80
2021/07/01 09:13:09;;;;;;;16.83;6.55;;;16.90;83.10;;;;;;5075413;28;20380;-79
2021/07/01 09:15:35;;;;;;;12.35;6.60;;;16.90;82.80;;;;;;5077877;28;20027;-79
2021/07/01 09:18:02;;;;;;;11.75;6.20;;;16.90;82.60;;;;;;5075394;28;20029;-79
2021/07/01 09:20:34;;;;;;;13.32;5.88;;;16.90;82.50;;;;;;5091448;28;20082;-80
2021/07/01 09:23:01;;;;;;;14.07;5.57;;;16.80;81.70;;;;;;5095369;28;20073;-79
2021/07/01 09:25:27;;;;;;;13.90;5.53;;;16.80;82.30;;;;;;5078496;28;20032;-79
2021/07/01 09:27:54;;;;;;;16.23;6.13;;;16.80;81.90;;;;;;5095885;28;20498;-79
2021/07/01 09:30:26;;;;;;;12.15;5.40;;;16.80;81.50;;;;;;5091342;28;20066;-79
2021/07/01 09:33:02;;;;;;;13.20;5.82;;;16.80;81.90;;;;;;5074941;28;20032;-79
2021/07/01 09:35:33;;;;;;;10.55;5.28;;;16.80;82.30;;;;;;5076403;28;20021;-79
2021/07/01 09:38:04;;;;;;;12.27;4.90;;;16.80;82.50;;;;;;5074806;28;20017;-78
2021/07/01 09:40:33;;;;;;;13.50;5.28;;;16.80;82.30;;;;;;5075972;28;20031;-79
2021/07/01 09:43:01;;;;;;;12.25;5.53;;;16.80;82.20;;;;;;5075021;28;20389;-79
2021/07/01 09:45:28;;;;;;;13.45;5.38;;;16.80;82.50;;;;;;5075956;28;20028;-79
2021/07/01 09:47:57;;;;;;;10.85;5.70;;;16.80;82.50;;;;;;5074655;28;20446;-78
2021/07/01 09:50:25;;;;;;;14.18;5.22;;;16.80;82.20;;;;;;5074540;28;20032;-78
2021/07/01 09:52:56;;;;;;;16.65;5.28;;;16.80;82.20;;;;;;5074678;28;20045;-79
2021/07/01 09:55:27;;;;;;;12.02;4.65;;;16.90;82.30;;;;;;5076265;28;20430;-79
2021/07/01 09:57:55;;;;;;;10.02;4.93;;;16.80;82.00;;;;;;5074232;28;20132;-79
2021/07/01 10:00:28;;;;;;;10.77;5.22;;;16.80;82.50;;;;;;5075702;28;20477;-79
2021/07/01 10:03:08;;;;;;;10.75;5.43;;;16.80;82.40;;;;;;5075920;28;20036;-79
2021/07/01 10:05:35;;;;;;;11.13;5.80;;;16.80;83.20;;;;;;5075640;28;20059;-79
2021/07/01 10:08:01;;;;;;;15.30;5.70;;;16.80;83.00;;;;;;5075507;28;20481;-79
2021/07/01 10:10:27;;;;;;;14.55;6.50;;;16.80;82.60;;;;;;5074334;28;20117;-79
2021/07/01 10:12:59;;;;;;;11.20;5.60;;;16.70;82.80;;;;;;5074283;28;20033;-79
2021/07/01 10:15:30;;;;;;;13.82;5.63;;;16.80;83.20;;;;;;5074562;28;20032;-79
2021/07/01 10:18:09;;;;;;;15.80;6.10;;;16.80;83.20;;;;;;5055876;28;20025;-79
2021/07/01 10:20:46;;;;;;;21.35;6.60;;;16.70;83.40;;;;;;5054510;28;20424;-79
2021/07/01 10:23:24;;;;;;;11.35;6.32;;;16.70;83.60;;;;;;5055021;28;20032;-79
2021/07/01 10:26:20;;;;;;;14.52;6.53;;;16.70;84.00;;;;;;5055041;28;20047;-79
2021/07/01 10:29:01;;;;;;;11.85;6.15;;;16.70;84.30;;;;;;5054277;28;20037;-79
2021/07/01 10:31:48;;;;;;;15.43;7.07;;;16.70;84.40;;;;;;5090395;28;20040;-79
2021/07/01 10:34:14;;;;;;;16.63;7.03;;;16.70;84.90;;;;;;5094857;28;20024;-79
2021/07/01 10:36:40;;;;;;;17.63;7.28;;;16.70;85.30;;;;;;5094083;28;20024;-79
2021/07/01 10:39:06;;;;;;;14.00;6.13;;;16.70;85.30;;;;;;5093824;28;20070;-79
2021/07/01 10:41:41;;;;;;;12.70;7.43;;;16.80;85.40;;;;;;5093683;28;20476;-79
2021/07/01 10:44:20;;;;;;;19.65;7.57;;;16.80;85.80;;;;;;5054689;28;20025;-79
2021/07/01 10:46:48;;;;;;;17.45;6.90;;;16.80;85.90;;;;;;5073427;28;20021;-79
2021/07/01 10:49:15;;;;;;;15.73;6.97;;;16.70;85.60;;;;;;5074681;28;20098;-79
2021/07/01 10:52:02;;;;;;;14.90;6.88;;;16.70;85.80;;;;;;5073030;28;20478;-79
2021/07/01 10:54:28;;;;;;;11.70;5.63;;;16.70;85.70;;;;;;5074550;28;20362;-79
2021/07/01 10:57:03;;;;;;;22.50;6.05;;;16.70;85.80;;;;;;5073358;28;20031;-79
2021/07/01 10:59:51;;;;;;;13.60;5.07;;;16.70;85.60;;;;;;5074446;28;20507;-80
2021/07/01 11:02:23;;;;;;;11.73;6.15;;;16.70;85.10;;;;;;5087074;28;20039;-79
2021/07/01 11:04:57;;;;;;;14.13;6.07;;;16.70;85.10;;;;;;5081527;28;20031;-79
2021/07/01 11:07:24;;;;;;;17.73;6.10;;;16.70;84.50;;;;;;5073111;28;20118;-79
2021/07/01 11:09:53;;;;;;;12.52;5.30;;;16.60;84.70;;;;;;5074110;28;20033;-79
2021/07/01 11:12:25;;;;;;;10.90;5.78;;;16.60;84.80;;;;;;5074613;28;20035;-78
2021/07/01 11:14:54;;;;;;;9.57;5.03;;;16.60;84.90;;;;;;5074230;28;20028;-78
2021/07/01 11:17:32;;;;;;;12.43;5.97;;;16.60;84.90;;;;;;5074544;28;20025;-78
2021/07/01 11:20:20;;;;;;;16.17;6.40;;;16.60;85.10;;;;;;5074195;28;20029;-78
2021/07/01 11:22:52;;;;;;;17.13;6.93;;;16.60;85.00;;;;;;5073097;28;20281;-78
2021/07/01 11:25:25;;;;;;;16.83;7.07;;;16.60;85.60;;;;;;5090739;28;20032;-78
2021/07/01 11:27:51;;;;;;;11.05;6.18;;;16.60;86.90;;;;;;5087058;28;20020;-78
2021/07/01 11:30:26;;;;;;;11.25;6.47;;;16.70;86.30;;;;;;5093997;28;20028;-78
2021/07/01 11:33:14;;;;;;;12.32;6.40;;;16.80;86.20;;;;;;5093726;28;20022;-78
2021/07/01 11:35:40;;;;;;;14.07;6.57;;;16.80;85.80;;;;;;5093808;28;20027;-78
2021/07/01 11:38:24;;;;;;;10.70;5.80;;;16.80;85.50;;;;;;5092604;28;20030;-78
2021/07/01 11:40:50;;;;;;;12.93;5.75;;;16.90;85.50;;;;;;5092726;28;20031;-78
2021/07/01 11:43:17;;;;;;;14.02;5.88;;;17.00;85.30;;;;;;5092669;28;20034;-78
2021/07/01 11:45:43;;;;;;;12.85;6.28;;;17.00;84.90;;;;;;5094113;28;20085;-78
2021/07/01 11:48:10;;;;;;;17.80;6.65;;;16.90;84.90;;;;;;5092827;28;20032;-78
2021/07/01 11:50:36;;;;;;;13.38;7.03;;;17.00;85.30;;;;;;5092856;28;20119;-78
2021/07/01 11:53:02;;;;;;;12.73;6.38;;;17.00;84.60;;;;;;5092829;28;20052;-78
2021/07/01 11:55:28;;;;;;;12.82;6.40;;;17.00;84.70;;;;;;5092519;28;20051;-78
2021/07/01 11:57:54;;;;;;;11.27;6.57;;;17.00;84.80;;;;;;5093863;28;20540;-78
2021/07/01 12:00:20;;;;;;;14.02;6.53;;;16.90;84.90;;;;;;5076017;28;20427;-78
2021/07/01 12:02:47;;;;;;;12.18;7.25;;;16.90;84.80;;;;;;5053487;28;20040;-78
2021/07/01 12:05:13;;;;;;;14.65;7.10;;;16.90;85.00;;;;;;5052308;28;20043;-78
2021/07/01 12:07:41;;;;;;;12.23;6.32;;;16.90;85.10;;;;;;5052195;28;20052;-78
2021/07/01 12:10:07;;;;;;;12.30;6.73;;;16.90;85.60;;;;;;5053364;28;20037;-78
2021/07/01 12:12:34;;;;;;;13.10;6.70;;;16.90;85.70;;;;;;5053398;28;20044;-78
2021/07/01 12:15:08;;;;;;;16.35;6.53;;;16.80;85.80;;;;;;5052087;28;20040;-78
2021/07/01 12:18:02;;;;;;;12.57;6.07;;;16.80;85.50;;;;;;5053070;28;20032;-79
2021/07/01 12:20:30;;;;;;;10.27;6.32;;;16.70;86.30;;;;;;5052584;28;20028;-79
2021/07/01 12:22:56;;;;;;;15.88;6.53;;;16.70;86.40;;;;;;5052245;28;20040;-78
2021/07/01 12:25:25;;;;;;;14.23;6.82;;;16.70;86.90;;;;;;5035614;28;20084;-78
2021/07/01 12:28:23;;;;;;;13.90;6.97;;;16.70;86.40;;;;;;5053734;28;20024;-78
2021/07/01 12:31:05;;;;;;;11.80;5.75;;;16.70;87.00;;;;;;5052403;28;20113;-78
2021/07/01 12:33:37;;;;;;;12.13;7.22;;;16.60;87.00;;;;;;5053125;28;20055;-78
2021/07/01 12:36:05;;;;;;;13.80;7.20;;;16.70;87.40;;;;;;5053149;28;20489;-78
2021/07/01 12:38:31;;;;;;;13.23;6.85;;;16.70;87.40;;;;;;5051834;28;20025;-79
2021/07/01 12:41:00;;;;;;;12.43;6.85;;;16.70;87.40;;;;;;5051911;28;20044;-79